Time;durP1;ratioP1;P1;durP2;ratioP2;P2;SDS_P1;SDS_P2;PMS_P1;PMS_P2;Temp;Humidity;BMP_temperature;BMP_pressure;BME280_temperature;BME280_humidity;BME280_pressure;Samples;Min_cycle;Max_cycle;Signal;HPM_P1;HPM_P2
2022/03/12 00:01:24;;;;;;;49.78;38.50;;;26.30;99.90;;;;;;5033959;28;20053;-60
2022/03/12 00:03:53;;;;;;;60.88;49.35;;;26.30;99.90;;;;;;5033702;28;20029;-60
2022/03/12 00:06:21;;;;;;;35.45;26.35;;;26.30;99.90;;;;;;5033587;28;20378;-60
2022/03/12 00:08:48;;;;;;;26.48;19.85;;;26.30;99.90;;;;;;5033790;28;20056;-60
2022/03/12 00:11:20;;;;;;;27.80;20.27;;;26.40;99.90;;;;;;5032961;28;20461;-60
2022/03/12 00:13:47;;;;;;;;;;;26.50;99.90;;;;;;5033905;28;20056;-60
2022/03/12 00:16:18;;;;;;;30.83;23.40;;;26.50;99.90;;;;;;5033835;28;20270;-60
2022/03/12 00:18:53;;;;;;;49.53;38.28;;;26.50;99.90;;;;;;5033552;28;20018;-60
2022/03/12 00:21:21;;;;;;;40.05;27.33;;;26.50;99.90;;;;;;5033755;28;20033;-60
2022/03/12 00:23:50;;;;;;;33.45;25.70;;;26.50;99.90;;;;;;5033415;28;20045;-60
2022/03/12 00:26:22;;;;;;;32.58;23.23;;;26.50;99.90;;;;;;5033632;28;20378;-60
2022/03/12 00:28:50;;;;;;;;;;;26.50;99.90;;;;;;5033653;28;20505;-60
2022/03/12 00:31:17;;;;;;;22.05;16.02;;;26.50;99.90;;;;;;5033622;28;19905;-60
2022/03/12 00:33:43;;;;;;;23.90;16.45;;;26.50;99.90;;;;;;5033347;28;20036;-59
2022/03/12 00:36:11;;;;;;;26.92;21.85;;;26.60;99.90;;;;;;5034144;28;20108;-60
2022/03/12 00:38:38;;;;;;;34.80;25.63;;;26.70;99.90;;;;;;5033600;28;20033;-60
2022/03/12 00:41:07;;;;;;;42.55;26.23;;;26.80;99.90;;;;;;5033765;28;20044;-60
2022/03/12 00:43:34;;;;;;;41.50;33.05;;;26.80;99.90;;;;;;5033540;28;20033;-60
2022/03/12 00:46:01;;;;;;;44.13;34.80;;;26.70;99.90;;;;;;5033446;28;20538;-60
2022/03/12 00:48:28;;;;;;;39.35;28.40;;;26.70;99.90;;;;;;5033291;28;20036;-59
2022/03/12 00:50:55;;;;;;;32.88;24.00;;;26.80;99.90;;;;;;5035014;28;20036;-59
2022/03/12 00:53:22;;;;;;;33.97;23.80;;;26.80;99.90;;;;;;5037413;28;20437;-60
2022/03/12 00:55:48;;;;;;;28.83;24.80;;;26.70;99.90;;;;;;5037312;28;20382;-59
2022/03/12 00:58:15;;;;;;;35.72;26.52;;;26.80;99.90;;;;;;5037319;28;20036;-60
2022/03/12 01:00:42;;;;;;;42.88;30.60;;;26.70;99.90;;;;;;5037163;28;20040;-60
2022/03/12 01:03:08;;;;;;;40.03;29.23;;;26.70;99.90;;;;;;5036990;28;20086;-60
2022/03/12 01:06:00;;;;;;;40.13;32.35;;;26.90;99.90;;;;;;5037178;28;20095;-60
2022/03/12 01:08:29;;;;;;;46.88;35.80;;;27.00;99.90;;;;;;5037191;28;20033;-59
2022/03/12 01:10:59;;;;;;;34.58;28.20;;;27.00;99.90;;;;;;5036864;28;20042;-60
2022/03/12 01:13:30;;;;;;;29.60;24.67;;;27.00;99.90;;;;;;5037024;28;20028;-60
2022/03/12 01:15:57;;;;;;;37.30;26.92;;;27.00;99.90;;;;;;5036615;28;20037;-60
2022/03/12 01:18:25;;;;;;;39.72;32.25;;;27.00;99.90;;;;;;5036956;28;20033;-61
2022/03/12 01:20:52;;;;;;;38.05;29.88;;;27.00;99.90;;;;;;5036771;28;20125;-61
2022/03/12 01:23:24;;;;;;;36.47;28.17;;;27.00;99.90;;;;;;5036665;28;20105;-61
2022/03/12 01:25:52;;;;;;;36.30;26.77;;;27.00;99.90;;;;;;5036704;28;20021;-61
2022/03/12 01:28:20;;;;;;;29.17;24.13;;;27.10;99.90;;;;;;5036575;28;20018;-60
2022/03/12 01:30:47;;;;;;;31.00;24.63;;;27.20;99.90;;;;;;5036234;28;20447;-62
2022/03/12 01:33:14;;;;;;;47.08;34.90;;;27.30;99.90;;;;;;5035666;28;20040;-59
2022/03/12 01:35:41;;;;;;;38.50;31.08;;;27.40;99.90;;;;;;5036060;28;20578;-61
2022/03/12 01:38:07;;;;;;;40.28;32.42;;;27.40;99.90;;;;;;5035951;28;20112;-62
2022/03/12 01:40:35;;;;;;;54.90;31.80;;;27.40;99.90;;;;;;5035947;28;20076;-61
2022/03/12 01:43:04;;;;;;;134.52;104.50;;;27.40;99.90;;;;;;5036161;28;20029;-61
2022/03/12 01:45:33;;;;;;;29.50;23.55;;;27.50;99.90;;;;;;5036263;28;20056;-63
2022/03/12 01:48:02;;;;;;;28.73;21.05;;;27.50;99.90;;;;;;5036602;28;20029;-62
2022/03/12 01:50:37;;;;;;;24.13;19.75;;;27.40;99.90;;;;;;5036528;28;20031;-62
2022/03/12 01:53:11;;;;;;;23.25;16.67;;;27.40;99.90;;;;;;5036148;28;20038;-63
2022/03/12 01:55:39;;;;;;;27.88;18.88;;;27.40;99.90;;;;;;5035912;28;20091;-63
2022/03/12 01:58:07;;;;;;;36.50;29.60;;;27.50;99.90;;;;;;5035759;28;20564;-63
2022/03/12 02:00:44;;;;;;;25.25;18.50;;;27.60;99.90;;;;;;5036198;28;20072;-62
2022/03/12 02:03:12;;;;;;;22.63;15.43;;;27.70;99.90;;;;;;5034973;28;20056;-62
2022/03/12 02:05:40;;;;;;;21.65;15.68;;;27.90;99.90;;;;;;5035197;28;20387;-63
2022/03/12 02:08:13;;;;;;;21.50;15.18;;;28.00;99.90;;;;;;5035425;28;20101;-63
2022/03/12 02:10:40;;;;;;;20.98;13.52;;;28.00;99.90;;;;;;5034627;28;20029;-62
2022/03/12 02:13:07;;;;;;;21.00;13.73;;;28.10;99.90;;;;;;5026325;28;20478;-63
2022/03/12 02:15:34;;;;;;;26.23;13.65;;;28.20;99.90;;;;;;5026515;28;20022;-63
2022/03/12 02:18:00;;;;;;;29.60;13.63;;;28.20;99.90;;;;;;5025063;28;20022;-63
2022/03/12 02:20:27;;;;;;;25.25;15.40;;;28.20;99.90;;;;;;5027049;28;20029;-63
2022/03/12 02:22:55;;;;;;;22.02;15.75;;;28.30;99.90;;;;;;5029795;28;20033;-64
2022/03/12 02:25:27;;;;;;;22.48;14.52;;;28.40;99.90;;;;;;5026813;28;20029;-62
2022/03/12 02:27:54;;;;;;;29.70;14.05;;;28.40;99.90;;;;;;5025027;28;20025;-62
2022/03/12 02:30:22;;;;;;;18.85;13.40;;;28.30;99.90;;;;;;5026917;28;20099;-62
2022/03/12 02:32:53;;;;;;;25.17;12.63;;;28.40;99.90;;;;;;5024946;28;20040;-61
2022/03/12 02:35:24;;;;;;;21.55;13.43;;;28.30;99.90;;;;;;5028308;28;20018;-62
2022/03/12 02:37:52;;;;;;;24.58;14.35;;;28.40;99.90;;;;;;5034317;28;20450;-63
2022/03/12 02:40:20;;;;;;;32.25;14.27;;;28.50;99.90;;;;;;5030712;28;20034;-62
2022/03/12 02:42:50;;;;;;;27.10;14.93;;;28.60;99.90;;;;;;5027115;28;20091;-61
2022/03/12 02:45:18;;;;;;;24.25;13.10;;;28.60;99.90;;;;;;5026561;28;20061;-62
2022/03/12 02:47:48;;;;;;;25.90;14.30;;;28.60;99.90;;;;;;5026405;28;20029;-63
2022/03/12 02:50:15;;;;;;;22.55;14.05;;;28.70;99.90;;;;;;5025862;28;20022;-64
2022/03/12 02:52:44;;;;;;;30.75;15.32;;;28.70;99.90;;;;;;5028934;28;20025;-62
2022/03/12 02:55:18;;;;;;;27.73;15.38;;;28.70;99.90;;;;;;5024480;28;20155;-62
2022/03/12 02:57:49;;;;;;;29.92;16.63;;;28.70;99.90;;;;;;5028484;28;20103;-63
2022/03/12 03:00:18;;;;;;;30.65;17.67;;;28.90;99.90;;;;;;5033130;28;20055;-63
2022/03/12 03:02:53;;;;;;;21.60;15.57;;;29.00;99.90;;;;;;5025044;28;20029;-63
2022/03/12 03:08:01;;;;;;;30.67;17.88;;;29.10;99.90;;;;;;5028875;28;20382;-63
2022/03/12 03:10:34;;;;;;;28.08;18.15;;;29.00;99.90;;;;;;5030716;28;20520;-64
2022/03/12 03:13:21;;;;;;;32.72;16.45;;;29.00;99.90;;;;;;5025839;28;20034;-62
2022/03/12 03:15:53;;;;;;;24.92;17.67;;;29.10;99.90;;;;;;5025977;28;20041;-62
2022/03/12 03:18:23;;;;;;;28.00;18.23;;;29.20;99.90;;;;;;5025943;28;20021;-63
2022/03/12 03:20:52;;;;;;;28.45;18.73;;;29.30;99.90;;;;;;5032364;28;20064;-63
2022/03/12 03:23:21;;;;;;;28.98;17.73;;;29.40;99.90;;;;;;5029148;28;20022;-62
2022/03/12 03:25:48;;;;;;;27.00;16.00;;;29.50;99.90;;;;;;5024485;28;20100;-64
2022/03/12 03:28:15;;;;;;;30.85;20.02;;;29.50;99.90;;;;;;5025272;28;20479;-62
2022/03/12 03:30:42;;;;;;;23.50;16.83;;;29.60;99.90;;;;;;5026181;28;20038;-62
2022/03/12 03:33:12;;;;;;;31.17;17.15;;;29.70;99.90;;;;;;5024233;28;20021;-63
2022/03/12 03:35:39;;;;;;;40.28;25.98;;;29.70;99.90;;;;;;5024575;28;20084;-63
2022/03/12 03:38:07;;;;;;;50.97;35.17;;;29.70;99.90;;;;;;5024667;28;20096;-63
2022/03/12 03:40:33;;;;;;;35.42;23.40;;;29.80;99.90;;;;;;5027416;28;20030;-63
2022/03/12 03:43:00;;;;;;;27.58;15.68;;;29.90;99.90;;;;;;5022086;28;20026;-62
2022/03/12 03:45:29;;;;;;;24.80;14.63;;;29.90;99.90;;;;;;5030534;28;20494;-63
2022/03/12 03:47:57;;;;;;;33.33;17.25;;;29.90;99.90;;;;;;5023025;28;20044;-63
2022/03/12 03:50:27;;;;;;;22.98;15.13;;;30.00;99.90;;;;;;5027246;28;20101;-63
2022/03/12 03:53:03;;;;;;;26.75;14.98;;;30.00;99.90;;;;;;5023948;28;20035;-63
2022/03/12 03:55:32;;;;;;;22.02;13.98;;;30.00;99.90;;;;;;5025959;28;20022;-63
2022/03/12 03:58:00;;;;;;;19.35;14.40;;;30.20;99.90;;;;;;5029996;28;20044;-63
2022/03/12 04:00:27;;;;;;;26.98;16.63;;;30.20;99.90;;;;;;5026542;28;20025;-64
2022/03/12 04:03:04;;;;;;;23.15;13.38;;;30.40;99.90;;;;;;5023984;28;20033;-62
2022/03/12 04:05:36;;;;;;;46.67;37.20;;;30.30;99.90;;;;;;5024412;28;20567;-63
2022/03/12 04:08:06;;;;;;;31.73;25.13;;;30.30;99.90;;;;;;5024997;28;20025;-63
2022/03/12 04:10:34;;;;;;;17.55;13.07;;;30.30;99.90;;;;;;5024238;28;20029;-63
2022/03/12 04:13:02;;;;;;;23.55;14.35;;;30.40;99.90;;;;;;5025965;28;20468;-63
2022/03/12 04:15:29;;;;;;;27.08;15.57;;;30.30;99.90;;;;;;5021087;28;20061;-63
2022/03/12 04:17:57;;;;;;;20.83;13.93;;;30.40;99.90;;;;;;5013709;28;20037;-63
2022/03/12 04:20:24;;;;;;;17.90;13.77;;;30.70;99.90;;;;;;5030175;28;20393;-63
2022/03/12 04:22:51;;;;;;;18.77;10.90;;;30.70;99.90;;;;;;5033522;28;20038;-63
2022/03/12 04:25:20;;;;;;;19.13;14.52;;;30.80;99.90;;;;;;5037251;28;20018;-62
2022/03/12 04:27:47;;;;;;;24.58;16.35;;;30.70;99.90;;;;;;5038939;28;20025;-62
2022/03/12 04:30:18;;;;;;;26.00;15.55;;;30.80;99.90;;;;;;5040232;28;20060;-62
2022/03/12 04:32:45;;;;;;;38.45;27.15;;;30.80;99.90;;;;;;5040096;28;20032;-61
2022/03/12 04:35:13;;;;;;;46.97;31.58;;;30.80;99.90;;;;;;5038813;28;20049;-62
2022/03/12 04:37:40;;;;;;;23.35;15.35;;;30.90;99.90;;;;;;5038470;28;20035;-62
2022/03/12 04:40:13;;;;;;;14.93;10.52;;;30.80;99.90;;;;;;5020360;28;20029;-62
2022/03/12 04:42:44;;;;;;;16.65;10.93;;;30.80;99.90;;;;;;5034777;28;20029;-62
2022/03/12 04:45:16;;;;;;;19.02;11.82;;;30.80;99.90;;;;;;5039503;28;20026;-62
2022/03/12 04:47:44;;;;;;;15.82;10.82;;;30.80;99.90;;;;;;5037854;28;20047;-61
2022/03/12 04:50:12;;;;;;;17.98;11.82;;;30.90;99.90;;;;;;5039546;28;20026;-62
2022/03/12 04:52:45;;;;;;;20.33;12.57;;;30.80;99.90;;;;;;5039661;28;20474;-62
2022/03/12 04:55:15;;;;;;;18.90;12.13;;;30.80;99.90;;;;;;5024072;28;20034;-62
2022/03/12 04:57:43;;;;;;;16.98;11.27;;;30.70;99.90;;;;;;5019774;28;20053;-61
2022/03/12 05:00:27;;;;;;;18.10;11.18;;;30.70;99.90;;;;;;5037620;28;20041;-62
2022/03/12 05:05:30;;;;;;;21.77;14.20;;;30.70;99.90;;;;;;5041098;28;20116;-60
2022/03/12 05:07:59;;;;;;;23.63;14.07;;;30.80;99.90;;;;;;5042681;28;20463;-61
2022/03/12 05:10:28;;;;;;;18.88;12.90;;;30.90;99.90;;;;;;5049950;28;20040;-60
2022/03/12 05:12:58;;;;;;;22.77;13.75;;;31.10;99.90;;;;;;5059220;28;20032;-61
2022/03/12 05:15:25;;;;;;;22.13;13.48;;;31.10;99.90;;;;;;5047723;28;20044;-60
2022/03/12 05:17:53;;;;;;;18.45;12.40;;;31.10;99.90;;;;;;5054936;28;20024;-60
2022/03/12 05:20:26;;;;;;;17.30;11.27;;;31.30;99.90;;;;;;5059249;28;20192;-60
2022/03/12 05:22:54;;;;;;;15.70;12.02;;;31.30;99.90;;;;;;5059143;28;20056;-61
2022/03/12 05:25:21;;;;;;;17.25;13.05;;;31.20;99.90;;;;;;5049155;28;20034;-62
2022/03/12 05:27:51;;;;;;;20.95;13.38;;;31.20;99.90;;;;;;5059507;28;20474;-62
2022/03/12 05:30:18;;;;;;;17.67;12.10;;;31.10;99.90;;;;;;5059495;28;20052;-60
2022/03/12 05:32:46;;;;;;;23.65;12.75;;;31.10;99.90;;;;;;5059763;28;20528;-60
2022/03/12 05:35:13;;;;;;;21.63;12.10;;;31.20;99.90;;;;;;5058332;28;20040;-63
2022/03/12 05:37:41;;;;;;;13.50;10.75;;;31.30;99.90;;;;;;5055227;28;20029;-63
2022/03/12 05:40:17;;;;;;;18.17;11.85;;;31.50;99.90;;;;;;5055764;28;20032;-63
2022/03/12 05:42:44;;;;;;;24.38;11.77;;;31.60;99.90;;;;;;5055821;28;20330;-63
2022/03/12 05:45:12;;;;;;;19.13;11.57;;;31.80;99.90;;;;;;5050182;28;20029;-62
2022/03/12 05:47:42;;;;;;;16.83;12.02;;;31.80;99.90;;;;;;5056009;28;20033;-62
2022/03/12 05:50:10;;;;;;;14.90;10.73;;;31.90;99.90;;;;;;5056103;28;20029;-63
2022/03/12 05:52:45;;;;;;;24.73;11.50;;;31.80;99.90;;;;;;5056223;28;20113;-62
2022/03/12 05:55:12;;;;;;;13.20;11.27;;;31.80;99.90;;;;;;5054450;28;20052;-62
2022/03/12 05:57:39;;;;;;;17.95;10.35;;;31.80;99.90;;;;;;5055823;28;20021;-68
2022/03/12 06:00:11;;;;;;;15.90;11.32;;;31.80;99.90;;;;;;5052165;28;20110;-66
2022/03/12 06:02:48;;;;;;;17.38;10.50;;;31.90;99.90;;;;;;5050181;28;20032;-67
2022/03/12 06:05:20;;;;;;;19.63;11.25;;;31.90;99.90;;;;;;5047896;28;20044;-67
2022/03/12 06:07:49;;;;;;;14.00;10.40;;;32.00;99.90;;;;;;5046986;28;20017;-65
2022/03/12 06:10:23;;;;;;;17.80;10.20;;;32.20;99.90;;;;;;5048316;28;20029;-66
2022/03/12 06:12:53;;;;;;;19.15;13.02;;;32.30;99.90;;;;;;5055003;28;20432;-66
2022/03/12 06:15:22;;;;;;;17.85;10.80;;;32.30;99.90;;;;;;5047886;28;20381;-66
2022/03/12 06:17:49;;;;;;;16.33;10.65;;;32.40;99.90;;;;;;5054883;28;20021;-66
2022/03/12 06:20:21;;;;;;;18.58;10.55;;;32.50;99.90;;;;;;5055419;28;20037;-68
2022/03/12 06:22:49;;;;;;;16.23;11.43;;;32.40;99.90;;;;;;5055065;28;20064;-67
2022/03/12 06:25:17;;;;;;;13.13;10.10;;;32.50;99.90;;;;;;5054374;28;20056;-66
2022/03/12 06:27:47;;;;;;;23.35;9.85;;;32.60;99.90;;;;;;5055332;28;20032;-67
2022/03/12 06:30:15;;;;;;;17.77;9.73;;;32.70;99.90;;;;;;5053913;28;20017;-68
2022/03/12 06:32:43;;;;;;;21.10;11.25;;;32.80;99.90;;;;;;5055444;28;20080;-68
2022/03/12 06:35:12;;;;;;;16.40;10.20;;;32.80;99.90;;;;;;5054364;28;20021;-67
2022/03/12 06:37:40;;;;;;;13.38;9.50;;;32.80;99.90;;;;;;5055089;28;20025;-66
2022/03/12 06:40:08;;;;;;;15.40;10.32;;;32.80;99.90;;;;;;5054825;28;20483;-67
2022/03/12 06:42:37;;;;;;;15.57;10.27;;;32.80;99.90;;;;;;5054703;28;20103;-66
2022/03/12 06:45:05;;;;;;;14.23;10.27;;;32.90;99.90;;;;;;5054198;28;20044;-66
2022/03/12 06:47:31;;;;;;;14.65;9.32;;;33.00;99.90;;;;;;5053359;28;20081;-67
2022/03/12 06:50:00;;;;;;;14.27;10.30;;;32.90;98.40;;;;;;5054262;28;20086;-65
2022/03/12 06:52:28;;;;;;;16.15;11.00;;;32.80;99.60;;;;;;5048433;28;20115;-66
2022/03/12 06:54:56;;;;;;;15.40;10.73;;;32.70;99.90;;;;;;5048671;28;20045;-65
2022/03/12 06:57:23;;;;;;;13.70;9.90;;;32.60;98.60;;;;;;5049716;28;20017;-61
2022/03/12 06:59:49;;;;;;;15.70;10.63;;;32.60;98.80;;;;;;5044404;28;20088;-61
2022/03/12 07:02:16;;;;;;;14.15;10.88;;;32.60;98.90;;;;;;5043963;28;20108;-61
2022/03/12 07:04:43;;;;;;;16.50;11.48;;;32.60;99.60;;;;;;5045012;28;20462;-61
2022/03/12 07:07:10;;;;;;;19.38;11.68;;;32.70;98.90;;;;;;5044198;28;20029;-61
2022/03/12 07:09:37;;;;;;;18.35;11.57;;;32.90;98.20;;;;;;5045397;28;20474;-61
2022/03/12 07:12:04;;;;;;;14.20;10.55;;;33.00;98.80;;;;;;5050618;28;20021;-62
2022/03/12 07:14:32;;;;;;;16.70;10.10;;;33.00;98.30;;;;;;5067390;23;20502;-59
2022/03/12 07:16:59;;;;;;;17.73;11.13;;;33.00;98.00;;;;;;5053773;28;20100;-61
2022/03/12 07:19:26;;;;;;;35.85;23.88;;;32.90;97.60;;;;;;5051099;28;20017;-61
2022/03/12 07:21:52;;;;;;;182.73;123.00;;;32.90;97.30;;;;;;5053696;28;20032;-61
2022/03/12 07:24:19;;;;;;;33.40;20.88;;;32.90;97.40;;;;;;5053992;28;20021;-61
2022/03/12 07:26:46;;;;;;;53.67;39.58;;;32.90;98.50;;;;;;5054211;28;20103;-60
2022/03/12 07:29:13;;;;;;;24.50;13.70;;;33.00;98.00;;;;;;5053863;28;20033;-61
2022/03/12 07:31:40;;;;;;;41.25;29.00;;;33.00;97.60;;;;;;5054061;28;20053;-60
2022/03/12 07:34:07;;;;;;;31.10;23.58;;;32.90;96.70;;;;;;5053565;28;20029;-60
2022/03/12 07:36:34;;;;;;;22.73;17.63;;;32.90;97.30;;;;;;5053001;28;20086;-58
2022/03/12 07:39:03;;;;;;;20.67;16.40;;;32.90;97.60;;;;;;5051005;28;20036;-62
2022/03/12 07:41:31;;;;;;;54.13;42.47;;;32.90;97.40;;;;;;5053440;28;20036;-59
2022/03/12 07:43:58;;;;;;;183.18;140.23;;;32.90;97.00;;;;;;5053702;28;20025;-60
2022/03/12 07:46:26;;;;;;;22.70;16.42;;;32.90;96.60;;;;;;5054557;28;20025;-61
2022/03/12 07:48:53;;;;;;;18.35;13.77;;;32.80;96.60;;;;;;5054208;28;20021;-61
2022/03/12 07:51:19;;;;;;;18.38;13.07;;;32.80;96.20;;;;;;5053082;28;20017;-60
2022/03/12 07:53:46;;;;;;;40.17;35.63;;;32.70;96.20;;;;;;5052280;28;20039;-60
2022/03/12 07:56:13;;;;;;;25.92;20.67;;;32.70;96.40;;;;;;5033973;28;20060;-61
2022/03/12 07:58:40;;;;;;;21.23;12.27;;;32.60;95.40;;;;;;5033909;28;20025;-61
2022/03/12 08:01:08;;;;;;;19.80;9.73;;;32.50;96.40;;;;;;5033707;28;20037;-60
2022/03/12 08:03:36;;;;;;;19.88;8.48;;;31.90;95.70;;;;;;5053216;28;20084;-60
2022/03/12 08:06:05;;;;;;;14.93;8.60;;;31.40;96.80;;;;;;5054008;28;20028;-61
2022/03/12 08:08:33;;;;;;;12.70;7.80;;;30.90;97.40;;;;;;5053400;28;20492;-60
2022/03/12 08:13:40;;;;;;;17.75;8.63;;;30.40;99.30;;;;;;5050915;28;20503;-60
2022/03/12 08:16:07;;;;;;;11.27;8.35;;;30.10;99.70;;;;;;5035788;28;20053;-60
2022/03/12 08:18:33;;;;;;;17.40;8.32;;;29.90;99.90;;;;;;5033745;28;20105;-59
2022/03/12 08:21:00;;;;;;;15.98;10.98;;;29.60;99.90;;;;;;5052722;28;20029;-60
2022/03/12 08:23:27;;;;;;;14.98;9.32;;;29.50;99.90;;;;;;5053784;28;20465;-60
2022/03/12 08:25:54;;;;;;;12.07;7.80;;;29.40;99.90;;;;;;5053483;28;20100;-59
2022/03/12 08:28:20;;;;;;;21.92;15.45;;;29.20;99.90;;;;;;5033170;28;20079;-59
2022/03/12 08:30:47;;;;;;;14.32;11.07;;;29.10;99.90;;;;;;5033691;28;20029;-60
2022/03/12 08:33:14;;;;;;;14.18;9.00;;;29.10;99.90;;;;;;5038948;28;20091;-60
2022/03/12 08:35:41;;;;;;;15.60;9.32;;;29.10;99.90;;;;;;5045429;28;20029;-60
2022/03/12 08:38:07;;;;;;;14.25;9.13;;;29.10;99.90;;;;;;5048107;28;20201;-60
2022/03/12 08:40:35;;;;;;;13.20;8.85;;;29.00;99.90;;;;;;5048002;28;20024;-60
2022/03/12 08:43:02;;;;;;;17.00;9.00;;;29.00;99.90;;;;;;5039802;28;20025;-60
2022/03/12 08:45:28;;;;;;;12.02;8.80;;;28.90;99.90;;;;;;5050169;28;20028;-60
2022/03/12 08:47:55;;;;;;;12.20;8.07;;;28.80;99.90;;;;;;5044339;28;20033;-60
2022/03/12 08:50:23;;;;;;;13.50;8.85;;;28.70;99.90;;;;;;5039285;28;20084;-61
2022/03/12 08:52:49;;;;;;;12.25;10.25;;;28.70;99.90;;;;;;5041747;28;20044;-61
2022/03/12 08:55:16;;;;;;;100.32;55.58;;;28.80;99.90;;;;;;5048218;28;20041;-60
2022/03/12 08:57:43;;;;;;;31.50;20.33;;;28.80;99.90;;;;;;5046679;28;20029;-61
2022/03/12 09:00:12;;;;;;;30.55;19.15;;;28.80;99.90;;;;;;5048455;28;20100;-61
2022/03/12 09:02:40;;;;;;;27.13;16.85;;;28.80;99.90;;;;;;5050860;28;20025;-59
2022/03/12 09:05:12;;;;;;;25.52;16.15;;;28.80;99.90;;;;;;5051417;28;20044;-61
2022/03/12 09:07:40;;;;;;;30.60;21.77;;;28.80;99.90;;;;;;5050958;28;20092;-60
2022/03/12 09:10:07;;;;;;;24.33;18.85;;;28.80;99.90;;;;;;5048175;28;20270;-60
2022/03/12 09:12:34;;;;;;;81.95;53.78;;;28.80;99.90;;;;;;5042687;28;20478;-60
2022/03/12 09:15:00;;;;;;;34.42;23.15;;;28.80;99.90;;;;;;5044788;28;20486;-60
2022/03/12 09:17:27;;;;;;;19.02;14.25;;;28.80;99.90;;;;;;5051024;28;20029;-60
2022/03/12 09:19:54;;;;;;;33.42;24.00;;;28.80;99.90;;;;;;5047932;28;20070;-61
2022/03/12 09:22:21;;;;;;;20.33;13.65;;;28.80;99.90;;;;;;5055160;28;20029;-61
2022/03/12 09:24:48;;;;;;;22.70;14.25;;;28.90;99.90;;;;;;5051543;28;20026;-60
2022/03/12 09:27:14;;;;;;;17.05;12.55;;;28.80;99.90;;;;;;5052097;28;20072;-60
2022/03/12 09:29:41;;;;;;;21.85;14.57;;;28.80;99.90;;;;;;5045782;28;20037;-59
2022/03/12 09:32:09;;;;;;;20.90;13.93;;;28.80;99.90;;;;;;5050662;28;20032;-59
2022/03/12 09:34:37;;;;;;;16.13;13.00;;;28.90;99.90;;;;;;5045336;28;20025;-60
2022/03/12 09:37:05;;;;;;;24.77;13.68;;;28.80;99.90;;;;;;5047494;28;20057;-59
2022/03/12 09:39:34;;;;;;;18.13;13.30;;;28.80;99.90;;;;;;5042087;28;20383;-60
2022/03/12 09:42:01;;;;;;;35.40;21.67;;;28.90;99.90;;;;;;5045296;28;20030;-60
2022/03/12 09:44:28;;;;;;;31.88;23.55;;;29.00;99.90;;;;;;5046213;28;20021;-61
2022/03/12 09:46:55;;;;;;;27.45;19.40;;;28.90;99.90;;;;;;5041371;28;20053;-61
2022/03/12 09:49:22;;;;;;;56.30;42.20;;;28.90;99.90;;;;;;5046741;28;20025;-61
2022/03/12 09:51:49;;;;;;;93.63;66.10;;;29.00;99.90;;;;;;5050802;28;20037;-61
2022/03/12 09:54:18;;;;;;;47.30;32.22;;;29.00;99.90;;;;;;5047210;28;20079;-61
2022/03/12 09:56:45;;;;;;;21.42;16.45;;;29.00;99.90;;;;;;5047686;28;20107;-60
2022/03/12 09:59:12;;;;;;;23.52;17.65;;;29.00;99.90;;;;;;5048008;28;20101;-60
2022/03/12 10:01:38;;;;;;;22.75;15.40;;;29.00;99.90;;;;;;5044681;28;20029;-61
2022/03/12 10:04:05;;;;;;;79.95;17.42;;;29.00;99.90;;;;;;5055480;28;20033;-60
2022/03/12 10:06:33;;;;;;;32.63;14.48;;;29.00;99.90;;;;;;5055402;28;20605;-62
2022/03/12 10:08:59;;;;;;;17.58;12.32;;;29.00;99.90;;;;;;5052859;28;20036;-61
2022/03/12 10:11:27;;;;;;;19.60;12.77;;;29.10;99.90;;;;;;5064464;28;20020;-61
2022/03/12 10:13:53;;;;;;;25.30;15.48;;;29.00;99.90;;;;;;5055171;28;20143;-61
2022/03/12 10:16:20;;;;;;;26.50;17.27;;;29.00;99.90;;;;;;5052819;28;20041;-62
2022/03/12 10:18:47;;;;;;;53.17;37.92;;;28.90;99.90;;;;;;5044215;28;20030;-61
2022/03/12 10:21:16;;;;;;;90.10;63.53;;;28.90;99.90;;;;;;5047147;28;20064;-62
2022/03/12 10:23:43;;;;;;;88.13;66.47;;;28.90;99.90;;;;;;5050796;28;20037;-61
2022/03/12 10:26:10;;;;;;;41.40;28.73;;;28.90;99.90;;;;;;5045243;28;20101;-62
2022/03/12 10:28:37;;;;;;;35.63;22.23;;;28.90;99.90;;;;;;5045323;28;20101;-61
2022/03/12 10:31:05;;;;;;;38.97;23.80;;;28.90;99.90;;;;;;5046293;28;20021;-63
2022/03/12 10:33:33;;;;;;;29.15;18.50;;;28.90;99.90;;;;;;5044000;28;20018;-62
2022/03/12 10:36:07;;;;;;;37.42;23.40;;;28.80;99.90;;;;;;5046034;28;20025;-60
2022/03/12 10:38:38;;;;;;;31.92;19.10;;;28.90;99.90;;;;;;5044251;28;20052;-61
2022/03/12 10:41:07;;;;;;;34.60;16.98;;;28.80;99.90;;;;;;5048738;28;20034;-60
2022/03/12 10:43:49;;;;;;;29.20;17.90;;;28.80;99.90;;;;;;5048372;28;20025;-61
2022/03/12 10:46:27;;;;;;;26.70;16.35;;;28.90;99.90;;;;;;5041532;28;20491;-61
2022/03/12 10:48:58;;;;;;;26.70;16.67;;;28.80;99.90;;;;;;5046635;28;20024;-59
2022/03/12 10:51:31;;;;;;;28.45;17.55;;;28.80;99.90;;;;;;5052550;28;20128;-62
2022/03/12 10:54:07;;;;;;;34.90;20.05;;;28.90;99.90;;;;;;5049370;28;20299;-61
2022/03/12 10:56:43;;;;;;;41.03;25.08;;;28.80;99.90;;;;;;5047217;28;20397;-61
2022/03/12 10:59:15;;;;;;;32.85;21.30;;;28.70;99.90;;;;;;5043675;28;20546;-60
2022/03/12 11:01:53;;;;;;;32.08;21.40;;;28.70;99.90;;;;;;5048101;28;20033;-61
2022/03/12 11:04:30;;;;;;;27.85;18.92;;;28.70;99.90;;;;;;5045369;28;20033;-61
2022/03/12 11:07:20;;;;;;;28.35;18.27;;;28.70;99.90;;;;;;5051654;28;20032;-61
2022/03/12 11:09:47;;;;;;;29.60;18.15;;;28.60;99.90;;;;;;5046468;28;20087;-60
2022/03/12 11:12:30;;;;;;;30.00;22.15;;;28.70;99.90;;;;;;5043906;28;20029;-62
2022/03/12 11:15:04;;;;;;;33.95;22.80;;;28.60;99.90;;;;;;5044518;28;20138;-61
2022/03/12 11:17:40;;;;;;;36.72;23.08;;;28.50;99.90;;;;;;5050986;28;20048;-62
2022/03/12 11:20:08;;;;;;;39.10;23.15;;;28.60;99.90;;;;;;5050219;28;20033;-60
2022/03/12 11:22:34;;;;;;;33.33;21.75;;;28.60;99.90;;;;;;5045730;28;20557;-60
2022/03/12 11:25:01;;;;;;;38.72;21.42;;;28.60;99.90;;;;;;5055106;28;20286;-62
2022/03/12 11:27:32;;;;;;;32.22;20.20;;;28.60;99.90;;;;;;5048412;28;20487;-58
2022/03/12 11:30:04;;;;;;;34.70;18.77;;;28.60;99.90;;;;;;5047901;28;20104;-61
2022/03/12 11:32:31;;;;;;;26.90;18.42;;;28.60;99.90;;;;;;5050221;28;20731;-61
2022/03/12 11:35:06;;;;;;;25.35;17.35;;;28.60;99.90;;;;;;5044563;28;20067;-60
2022/03/12 11:37:36;;;;;;;152.20;129.30;;;28.60;99.90;;;;;;5050203;28;20055;-61
2022/03/12 11:40:05;;;;;;;73.22;57.80;;;28.60;99.90;;;;;;5048802;28;20513;-60
2022/03/12 11:42:33;;;;;;;34.45;20.75;;;28.70;99.90;;;;;;5051459;28;20049;-60
2022/03/12 11:45:04;;;;;;;29.00;18.02;;;28.70;99.90;;;;;;5047288;28;20104;-60
2022/03/12 11:47:35;;;;;;;29.98;17.52;;;28.70;99.90;;;;;;5049081;28;20048;-61
2022/03/12 11:50:04;;;;;;;25.98;17.73;;;28.60;99.90;;;;;;5054680;28;20159;-61
2022/03/12 11:52:33;;;;;;;29.52;18.35;;;28.60;99.90;;;;;;5051214;28;20446;-61
2022/03/12 11:55:05;;;;;;;32.70;23.20;;;28.60;99.90;;;;;;5053827;28;20037;-62
2022/03/12 11:57:35;;;;;;;26.20;19.15;;;28.60;99.90;;;;;;5053234;28;20036;-62
2022/03/12 12:00:06;;;;;;;29.73;18.70;;;28.60;99.90;;;;;;5043391;28;20021;-62
2022/03/12 12:02:34;;;;;;;25.58;16.77;;;28.60;99.90;;;;;;5049473;28;20033;-63
2022/03/12 12:05:07;;;;;;;32.35;20.17;;;28.60;99.90;;;;;;5054241;28;20032;-62
2022/03/12 12:07:36;;;;;;;27.10;17.33;;;28.60;99.90;;;;;;5044618;28;20035;-63
2022/03/12 12:10:08;;;;;;;25.63;17.75;;;28.60;99.90;;;;;;5051878;28;20025;-62
2022/03/12 12:12:35;;;;;;;28.27;17.25;;;28.60;99.90;;;;;;5049879;28;20021;-62
2022/03/12 12:15:05;;;;;;;26.50;16.58;;;28.60;99.90;;;;;;5052248;28;20049;-63
2022/03/12 12:17:32;;;;;;;27.30;18.90;;;28.60;99.90;;;;;;5049692;28;20450;-63
2022/03/12 12:20:00;;;;;;;33.20;22.25;;;28.60;99.90;;;;;;5051881;28;20033;-63
2022/03/12 12:22:27;;;;;;;33.63;21.95;;;28.60;99.90;;;;;;5054350;28;20174;-63
2022/03/12 12:24:56;;;;;;;31.08;20.58;;;28.50;99.90;;;;;;5047349;28;20053;-62
2022/03/12 12:27:33;;;;;;;31.23;20.55;;;28.50;99.90;;;;;;5051950;28;20053;-63
2022/03/12 12:30:00;;;;;;;30.20;19.85;;;28.50;99.90;;;;;;5049615;28;20033;-63
2022/03/12 12:32:29;;;;;;;41.40;23.67;;;28.50;99.90;;;;;;5057388;28;20037;-63
2022/03/12 12:34:59;;;;;;;32.00;21.25;;;28.50;99.90;;;;;;5054357;28;20516;-62
2022/03/12 12:37:40;;;;;;;30.90;21.45;;;28.50;99.90;;;;;;5049227;28;20374;-62
2022/03/12 12:40:21;;;;;;;32.58;22.58;;;28.50;99.90;;;;;;5043891;28;20115;-63
2022/03/12 12:42:50;;;;;;;31.45;20.35;;;28.40;99.90;;;;;;5052495;28;20036;-62
2022/03/12 12:45:20;;;;;;;25.92;18.02;;;28.40;99.90;;;;;;5054290;28;20052;-62